Time;durP1;ratioP1;P1;durP2;ratioP2;P2;SDS_P1;SDS_P2;PMS_P1;PMS_P2;Temp;Humidity;BMP_temperature;BMP_pressure;BME280_temperature;BME280_humidity;BME280_pressure;Samples;Min_cycle;Max_cycle;Signal;HPM_P1;HPM_P2
2022/06/06 00:00:39;;;;;;;;;;;;;;;-144.99;100.00;52219.81;5065361;28;20047;-66
2022/06/06 00:03:05;;;;;;;;;;;;;;;-144.99;100.00;52187.19;5063561;28;20027;-63
2022/06/06 00:05:32;;;;;;;;;;;;;;;-144.99;100.00;52234.09;5082143;28;20019;-65
2022/06/06 00:07:59;;;;;;;;;;;;;;;-144.99;100.00;52264.66;5064331;28;19941;-66
2022/06/06 00:10:25;;;;;;;;;;;;;;;-144.99;100.00;52227.97;5067189;28;19965;-65
2022/06/06 00:12:53;;;;;;;;;;;;;;;-144.99;100.00;52203.50;5073747;28;20665;-66
2022/06/06 00:15:23;;;;;;;;;;;;;;;-144.99;100.00;52227.97;5079426;28;20006;-65
2022/06/06 00:17:49;;;;;;;;;;;;;;;-144.99;100.00;52276.88;5067638;28;20063;-64
2022/06/06 00:20:17;;;;;;;;;;;;;;;-144.99;100.00;52232.03;5078445;28;19934;-65
2022/06/06 00:22:44;;;;;;;;;;;;;;;-144.99;100.00;52244.28;5065599;28;20461;-64
2022/06/06 00:25:11;;;;;;;;;;;;;;;-144.99;100.00;52203.50;5066033;28;20475;-65
2022/06/06 00:27:37;;;;;;;;;;;;;;;-144.99;100.00;52209.63;5062651;28;19936;-65
2022/06/06 00:30:06;;;;;;;;;;;;;;;-144.99;100.00;52232.03;5065736;28;19971;-64
2022/06/06 00:35:16;;;;;;;;;;;;;;;-144.99;100.00;52252.44;4722157;28;10000129;-64
2022/06/06 00:37:43;;;;;;;;;;;;;;;-144.99;100.00;52264.66;5081139;28;20053;-67
2022/06/06 00:40:11;;;;;;;;;;;;;;;-144.99;100.00;52238.16;5076968;28;19968;-64
2022/06/06 00:42:39;;;;;;;;;;;;;;;-144.99;100.00;52232.03;5069028;28;19928;-62
2022/06/06 00:45:24;;;;;;;;;;;;;;;-144.99;100.00;52223.88;5070947;28;20453;-63
2022/06/06 00:47:53;;;;;;;;;;;;;;;-144.99;100.00;52219.81;5072517;28;20441;-60
2022/06/06 00:50:22;;;;;;;;;;;;;;;-144.99;100.00;52252.44;5081636;28;19958;-60
2022/06/06 00:52:50;;;;;;;;;;;;;;;-144.99;100.00;52250.38;5080110;28;19925;-60
2022/06/06 00:55:18;;;;;;;;;;;;;;;-144.99;100.00;52227.97;5072021;28;19968;-59
2022/06/06 00:57:47;;;;;;;;;;;;;;;-144.99;100.00;52227.97;5072425;28;20023;-60
2022/06/06 01:00:15;;;;;;;;;;;;;;;-144.99;100.00;52240.19;5071628;28;20351;-61
2022/06/06 01:02:43;;;;;;;;;;;;;;;-144.99;100.00;52232.03;5081818;28;19954;-60
2022/06/06 01:05:11;;;;;;;;;;;;;;;-144.99;100.00;52203.50;5079746;28;19931;-62
2022/06/06 01:07:37;;;;;;;;;;;;;;;-144.99;100.00;52252.44;5074389;22;19998;-69
2022/06/06 01:10:04;;;;;;;;;;;;;;;-144.99;100.00;52234.09;5044061;28;20015;-69
2022/06/06 01:12:32;;;;;;;;;;;;;;;-144.99;100.00;52238.16;5049823;28;19986;-70
2022/06/06 01:15:01;;;;;;;;;;;;;;;-144.99;100.00;52262.63;5052063;28;19924;-70
2022/06/06 01:17:34;;;;;;;;;;;;;;;-144.99;100.00;52285.03;5052618;28;20015;-70
2022/06/06 01:20:16;;;;;;;;;;;;;;;-144.99;100.00;52244.28;5052630;28;20010;-69
2022/06/06 01:22:56;;;;;;;;;;;;;;;-144.99;100.00;52227.97;5052996;28;20065;-69
2022/06/06 01:25:48;;;;;;;;;;;;;;;-144.99;100.00;52240.19;5052044;28;20415;-70
2022/06/06 01:28:25;;;;;;;;;;;;;;;-144.99;100.00;52252.44;5052458;28;19960;-71
2022/06/06 01:30:53;;;;;;;;;;;;;;;-144.99;100.00;52187.19;5052168;28;19975;-69
2022/06/06 01:33:20;;;;;;;;;;;;;;;-144.99;100.00;52207.59;5051922;28;20001;-70
2022/06/06 01:35:48;;;;;;;;;;;;;;;-144.99;100.00;52236.13;5051801;28;19924;-70
2022/06/06 01:38:17;;;;;;;;;;;;;;;-144.99;100.00;52217.78;5052281;28;20031;-69
2022/06/06 01:40:46;;;;;;;;;;;;;;;-144.99;100.00;52211.66;5052334;28;20015;-69
2022/06/06 01:43:15;;;;;;;;;;;;;;;-144.99;100.00;52227.97;5052047;28;19928;-69
2022/06/06 01:45:45;;;;;;;;;;;;;;;-144.99;100.00;52215.75;5051541;28;20387;-69
2022/06/06 01:48:14;;;;;;;;;;;;;;;-144.99;100.00;52195.34;5051799;28;19960;-69
2022/06/06 01:50:41;;;;;;;;;;;;;;;-144.99;100.00;52232.03;5052212;28;20396;-71
2022/06/06 01:53:10;;;;;;;;;;;;;;;-144.99;100.00;52205.53;5052027;28;20433;-70
2022/06/06 01:55:38;;;;;;;;;;;;;;;-144.99;100.00;52191.28;5051547;28;20273;-70
2022/06/06 01:58:06;;;;;;;;;;;;;;;-144.99;100.00;52262.63;5051642;28;20274;-70
2022/06/06 02:00:34;;;;;;;;;;;;;;;-144.99;100.00;52219.81;5051708;28;19945;-70
2022/06/06 02:03:02;;;;;;;;;;;;;;;-144.99;100.00;52215.75;5044187;28;20368;-70
2022/06/06 02:05:29;;;;;;;;;;;;;;;-144.99;100.00;52223.88;5044585;28;20014;-70
2022/06/06 02:07:56;;;;;;;;;;;;;;;-144.99;100.00;52203.50;5051741;28;20238;-71
2022/06/06 02:10:23;;;;;;;;;;;;;;;-144.99;100.00;52236.13;5051742;28;19967;-70
2022/06/06 02:12:49;;;;;;;;;;;;;;;-144.99;100.00;52236.13;5063142;28;19971;-70
2022/06/06 02:15:17;;;;;;;;;;;;;;;-144.99;100.00;52219.81;5050985;28;19925;-70
2022/06/06 02:17:43;;;;;;;;;;;;;;;-144.99;100.00;52240.19;5051212;28;19959;-70
2022/06/06 02:20:12;;;;;;;;;;;;;;;-144.99;100.00;52225.94;5051237;28;20383;-70
2022/06/06 02:22:39;;;;;;;;;;;;;;;-144.99;100.00;52211.66;5051660;28;19924;-70
2022/06/06 02:25:07;;;;;;;;;;;;;;;-144.99;100.00;52195.34;5050898;28;19975;-71
2022/06/06 02:27:33;;;;;;;;;;;;;;;-144.99;100.00;52215.75;5051592;28;19929;-70
2022/06/06 02:30:00;;;;;;;;;;;;;;;-144.99;100.00;52232.03;5051856;28;19994;-72
2022/06/06 02:32:26;;;;;;;;;;;;;;;-144.99;100.00;52199.44;5051366;28;19995;-71
2022/06/06 02:34:53;;;;;;;;;;;;;;;-144.99;100.00;52211.66;5051068;28;19995;-71
2022/06/06 02:37:21;;;;;;;;;;;;;;;-144.99;100.00;52276.88;5051521;28;20018;-72
2022/06/06 02:39:47;;;;;;;;;;;;;;;-144.99;100.00;52211.66;5050836;28;19994;-71
2022/06/06 02:42:14;;;;;;;;;;;;;;;-144.99;100.00;52244.28;5050675;28;20023;-73
2022/06/06 02:44:40;;;;;;;;;;;;;;;-144.99;100.00;52215.75;5050766;28;19950;-73
2022/06/06 02:47:07;;;;;;;;;;;;;;;-144.99;100.00;52187.19;5050808;28;20048;-72
2022/06/06 02:49:34;;;;;;;;;;;;;;;-144.99;100.00;52256.50;5050792;28;20625;-72
2022/06/06 02:52:01;;;;;;;;;;;;;;;-144.99;100.00;52232.03;5045850;28;20513;-73
2022/06/06 02:54:29;;;;;;;;;;;;;;;-144.99;100.00;52248.34;5042530;28;20030;-71
2022/06/06 02:56:56;;;;;;;;;;;;;;;-144.99;100.00;52219.81;5050628;28;20215;-73
2022/06/06 02:59:23;;;;;;;;;;;;;;;-144.99;100.00;52227.97;5050446;28;20304;-74
2022/06/06 03:01:51;;;;;;;;;;;;;;;-144.99;100.00;52211.66;5049558;28;20019;-73
2022/06/06 03:04:18;;;;;;;;;;;;;;;-144.99;100.00;52227.97;5050390;28;20419;-72
2022/06/06 03:06:54;;;;;;;;;;;;;;;-144.99;100.00;52211.66;5050593;28;19936;-72
2022/06/06 03:09:26;;;;;;;;;;;;;;;-144.99;100.00;52244.28;5050923;28;19962;-71
2022/06/06 03:12:04;;;;;;;;;;;;;;;-144.99;100.00;52234.09;5050208;28;19956;-71
2022/06/06 03:14:41;;;;;;;;;;;;;;;-144.99;100.00;52219.81;5050530;28;20370;-72
2022/06/06 03:23:01;;;;;;;;;;;;;;;-144.99;100.00;52240.19;5050187;28;19953;-69
2022/06/06 03:25:31;;;;;;;;;;;;;;;-144.99;100.00;52252.44;5050021;28;19959;-71
2022/06/06 03:28:05;;;;;;;;;;;;;;;-144.99;100.00;52252.44;5050354;28;19991;-70
2022/06/06 03:30:39;;;;;;;;;;;;;;;-144.99;100.00;52203.50;5049946;28;20013;-69
2022/06/06 03:33:12;;;;;;;;;;;;;;;-144.99;100.00;52213.69;5049703;28;19945;-71
2022/06/06 03:35:41;;;;;;;;;;;;;;;-144.99;100.00;52221.84;5049869;28;20039;-70
2022/06/06 03:38:08;;;;;;;;;;;;;;;-144.99;100.00;52236.13;5050316;28;19998;-68
2022/06/06 03:40:39;;;;;;;;;;;;;;;-144.99;100.00;52227.97;5050118;28;19985;-69
2022/06/06 03:43:14;;;;;;;;;;;;;;;-144.99;100.00;52252.44;5049263;28;20016;-73
2022/06/06 03:45:44;;;;;;;;;;;;;;;-144.99;100.00;52215.75;5049619;28;20304;-72
2022/06/06 03:48:16;;;;;;;;;;;;;;;-144.99;100.00;52244.28;5049904;28;19959;-72
2022/06/06 03:50:47;;;;;;;;;;;;;;;-144.99;100.00;52260.56;5050024;28;20058;-71
2022/06/06 03:53:20;;;;;;;;;;;;;;;-144.99;100.00;52191.28;5050195;28;19924;-71
2022/06/06 03:55:53;;;;;;;;;;;;;;;-144.99;100.00;52240.19;5050267;28;19950;-73
2022/06/06 03:58:22;;;;;;;;;;;;;;;-144.99;100.00;52207.59;5049917;28;20011;-69
2022/06/06 04:00:49;;;;;;;;;;;;;;;-144.99;100.00;52238.16;5049903;28;19989;-68
2022/06/06 04:03:16;;;;;;;;;;;;;;;-144.99;100.00;52276.88;5041883;28;19939;-70
2022/06/06 04:05:43;;;;;;;;;;;;;;;-144.99;100.00;52219.81;5050013;28;19935;-70
2022/06/06 04:08:10;;;;;;;;;;;;;;;-144.99;100.00;52240.19;5050262;28;20272;-71
2022/06/06 04:10:42;;;;;;;;;;;;;;;-144.99;100.00;52248.34;5049533;28;19931;-71
2022/06/06 04:13:16;;;;;;;;;;;;;;;-144.99;100.00;52223.88;5054081;28;19964;-71
2022/06/06 04:15:52;;;;;;;;;;;;;;;-144.99;100.00;52219.81;5053964;28;20056;-71
2022/06/06 04:18:26;;;;;;;;;;;;;;;-144.99;100.00;52250.38;5053873;28;20051;-72
2022/06/06 04:20:57;;;;;;;;;;;;;;;-144.99;100.00;52232.03;5053707;28;20027;-72
2022/06/06 04:23:28;;;;;;;;;;;;;;;-144.99;100.00;52215.75;5053575;28;19982;-72
2022/06/06 04:25:59;;;;;;;;;;;;;;;-144.99;100.00;52236.13;5053608;28;19957;-73
2022/06/06 04:28:29;;;;;;;;;;;;;;;-144.99;100.00;52230.00;5053688;28;19968;-68
2022/06/06 04:31:05;;;;;;;;;;;;;;;-144.99;100.00;52244.28;5053783;28;19935;-71
2022/06/06 04:33:37;;;;;;;;;;;;;;;-144.99;100.00;52187.19;5052941;28;20356;-70
2022/06/06 04:36:07;;;;;;;;;;;;;;;-144.99;100.00;52236.13;5053824;28;20021;-70
2022/06/06 04:38:40;;;;;;;;;;;;;;;-144.99;100.00;52223.88;5053487;28;20037;-70
2022/06/06 04:41:10;;;;;;;;;;;;;;;-144.99;100.00;52252.44;5053133;28;19979;-71
2022/06/06 04:43:40;;;;;;;;;;;;;;;-144.99;100.00;52248.34;5052953;28;20030;-71
2022/06/06 04:46:18;;;;;;;;;;;;;;;-144.99;100.00;52223.88;5053046;28;20031;-71
2022/06/06 04:48:45;;;;;;;;;;;;;;;-144.99;100.00;52236.13;5053283;28;19929;-70
2022/06/06 04:51:12;;;;;;;;;;;;;;;-144.99;100.00;52232.03;5053091;28;20020;-65
2022/06/06 04:53:40;;;;;;;;;;;;;;;-144.99;100.00;52240.19;5052969;28;19968;-65
2022/06/06 04:56:08;;;;;;;;;;;;;;;-144.99;100.00;52252.44;5052415;28;19978;-64
2022/06/06 04:58:35;;;;;;;;;;;;;;;-144.99;100.00;52248.34;5052816;28;19956;-64
2022/06/06 05:01:02;;;;;;;;;;;;;;;-144.99;100.00;52260.56;5052674;28;20040;-63
2022/06/06 05:03:30;;;;;;;;;;;;;;;-144.99;100.00;52248.34;5052668;28;19931;-65
2022/06/06 05:06:08;;;;;;;;;;;;;;;-144.99;100.00;52256.50;5052645;28;20471;-64
2022/06/06 05:08:44;;;;;;;;;;;;;;;-144.99;100.00;52240.19;5052980;28;19937;-65
2022/06/06 05:11:18;;;;;;;;;;;;;;;-144.99;100.00;52215.75;5053216;28;19925;-65
2022/06/06 05:13:59;;;;;;;;;;;;;;;-144.99;100.00;52223.88;5040180;28;19969;-65
2022/06/06 05:16:32;;;;;;;;;;;;;;;-144.99;100.00;52227.97;5008841;28;19931;-66
2022/06/06 05:19:13;;;;;;;;;;;;;;;-144.99;100.00;52256.50;5052677;28;20345;-65
2022/06/06 05:21:57;;;;;;;;;;;;;;;-144.99;100.00;52244.28;5051033;28;20461;-65
2022/06/06 05:24:32;;;;;;;;;;;;;;;-144.99;100.00;52236.13;5048809;28;20016;-65
2022/06/06 05:27:08;;;;;;;;;;;;;;;-144.99;100.00;52219.81;5048663;28;19940;-68
2022/06/06 05:29:55;;;;;;;;;;;;;;;-144.99;100.00;52223.88;5052481;28;19933;-67
2022/06/06 05:32:36;;;;;;;;;;;;;;;-144.99;100.00;52223.88;5036022;28;20008;-67
2022/06/06 05:35:08;;;;;;;;;;;;;;;-144.99;100.00;52248.34;5052631;28;20039;-68
2022/06/06 05:37:44;;;;;;;;;;;;;;;-144.99;100.00;52199.44;5052339;28;19935;-68
2022/06/06 05:40:14;;;;;;;;;;;;;;;-144.99;100.00;52260.56;5052194;28;19976;-68
2022/06/06 05:42:52;;;;;;;;;;;;;;;-144.99;100.00;52223.88;5039495;28;20024;-68
2022/06/06 05:45:23;;;;;;;;;;;;;;;-144.99;100.00;52276.88;5032288;28;20359;-69
2022/06/06 05:47:56;;;;;;;;;;;;;;;-144.99;100.00;52260.56;5047130;28;20006;-70
2022/06/06 05:50:28;;;;;;;;;;;;;;;-144.99;100.00;52289.13;5052670;28;20020;-69
2022/06/06 05:53:02;;;;;;;;;;;;;;;-144.99;100.00;52227.97;5052407;28;19975;-70
2022/06/06 05:55:37;;;;;;;;;;;;;;;-144.99;100.00;52289.13;5052022;28;19925;-68
2022/06/06 05:58:34;;;;;;;;;;;;;;;-144.99;100.00;52248.34;5051623;28;20027;-69
2022/06/06 06:01:11;;;;;;;;;;;;;;;-144.99;100.00;52260.56;5051465;28;19925;-72
2022/06/06 06:03:48;;;;;;;;;;;;;;;-144.99;100.00;52256.50;5045233;28;19955;-72
2022/06/06 06:06:20;;;;;;;;;;;;;;;-144.99;100.00;52248.34;5051495;28;19971;-67
2022/06/06 06:09:03;;;;;;;;;;;;;;;-144.99;100.00;52270.78;5051749;28;19973;-66
2022/06/06 06:11:42;;;;;;;;;;;;;;;-144.99;100.00;52223.88;5048851;28;19925;-66
2022/06/06 06:14:16;;;;;;;;;;;;;;;-144.99;100.00;52217.78;5053876;28;20019;-66
2022/06/06 06:16:45;;;;;;;;;;;;;;;-144.99;100.00;52232.03;5051511;28;20449;-67
2022/06/06 06:19:13;;;;;;;;;;;;;;;-144.99;100.00;52211.66;5051618;28;20020;-66
2022/06/06 06:21:43;;;;;;;;;;;;;;;-144.99;100.00;52223.88;5051351;28;20012;-66
2022/06/06 06:24:12;;;;;;;;;;;;;;;-144.99;100.00;52252.44;5051537;28;19967;-66
2022/06/06 06:26:39;;;;;;;;;;;;;;;-144.99;100.00;52232.03;5051281;28;20007;-66
2022/06/06 06:29:07;;;;;;;;;;;;;;;-144.99;100.00;52199.44;5052049;28;20063;-68
2022/06/06 06:31:41;;;;;;;;;;;;;;;-144.99;100.00;52203.50;5050554;28;20021;-68
2022/06/06 06:34:14;;;;;;;;;;;;;;;-144.99;100.00;52227.97;5051282;28;19968;-69
2022/06/06 06:36:44;;;;;;;;;;;;;;;-144.99;100.00;52240.19;5049674;28;19924;-69
2022/06/06 06:39:19;;;;;;;;;;;;;;;-144.99;100.00;52236.13;5051065;28;20471;-69
2022/06/06 06:41:53;;;;;;;;;;;;;;;-144.99;100.00;52215.75;5049914;28;20382;-69
2022/06/06 06:44:25;;;;;;;;;;;;;;;-144.99;100.00;52189.25;5051285;28;20007;-70
2022/06/06 06:46:55;;;;;;;;;;;;;;;-144.99;100.00;52223.88;5050411;28;19925;-70
2022/06/06 06:49:29;;;;;;;;;;;;;;;-144.99;100.00;52223.88;5050739;28;19924;-70
2022/06/06 06:52:01;;;;;;;;;;;;;;;-144.99;100.00;52256.50;5045768;28;19972;-70
2022/06/06 06:54:38;;;;;;;;;;;;;;;-144.99;100.00;52293.19;5048115;28;20309;-72
2022/06/06 06:57:12;;;;;;;;;;;;;;;-144.99;100.00;52238.16;5050333;28;19970;-70
2022/06/06 06:59:44;;;;;;;;;;;;;;;-144.99;100.00;52264.66;5050793;28;19929;-70
2022/06/06 07:10:47;;;;;;;;;;;;;;;-144.99;100.00;52295.22;5050331;28;19967;-70
2022/06/06 07:13:30;;;;;;;;;;;;;;;-144.99;100.00;52268.72;5050701;28;19997;-69
2022/06/06 07:16:03;;;;;;;;;;;;;;;-144.99;100.00;52236.13;5050514;28;19952;-73
2022/06/06 07:18:33;;;;;;;;;;;;;;;-144.99;100.00;52285.03;5050577;28;20053;-71
2022/06/06 07:21:00;;;;;;;;;;;;;;;-144.99;100.00;52252.44;5037111;28;20011;-71
2022/06/06 07:23:31;;;;;;;;;;;;;;;-144.99;100.00;52248.34;5047081;28;20033;-70
2022/06/06 07:26:00;;;;;;;;;;;;;;;-144.99;100.00;52293.19;5049936;28;20028;-72
2022/06/06 07:28:26;;;;;;;;;;;;;;;-144.99;100.00;52217.78;5050225;28;20458;-71
2022/06/06 07:30:58;;;;;;;;;;;;;;;-144.99;100.00;52293.19;5050507;28;20358;-71
2022/06/06 07:33:30;;;;;;;;;;;;;;;-144.99;100.00;52278.91;5050353;28;19977;-72
2022/06/06 07:36:05;;;;;;;;;;;;;;;-144.99;100.00;52219.81;5050591;28;19946;-71
2022/06/06 07:38:38;;;;;;;;;;;;;;;-144.99;100.00;52248.34;5050782;28;20689;-71
2022/06/06 07:41:17;;;;;;;;;;;;;;;-144.99;98.38;52227.97;5050614;28;20041;-72
2022/06/06 07:43:53;;;;;;;;;;;;;;;-144.99;96.33;52240.19;5043309;28;19953;-70
2022/06/06 07:46:26;;;;;;;;;;;;;;;-144.99;93.85;52260.56;5050816;28;20013;-70
2022/06/06 07:49:00;;;;;;;;;;;;;;;-144.99;93.83;52258.53;5054792;28;19996;-71
2022/06/06 07:51:32;;;;;;;;;;;;;;;-144.99;93.97;52236.13;5054726;28;19925;-69
2022/06/06 07:54:05;;;;;;;;;;;;;;;-144.99;93.77;52227.97;5053895;28;20193;-71
2022/06/06 07:56:37;;;;;;;;;;;;;;;-144.99;94.23;52264.66;5050617;28;19981;-71
2022/06/06 07:59:11;;;;;;;;;;;;;;;-144.99;93.49;52248.34;5050741;28;20205;-71
2022/06/06 08:01:42;;;;;;;;;;;;;;;-144.99;93.17;52223.88;5049078;28;19951;-71
2022/06/06 08:04:16;;;;;;;;;;;;;;;-144.99;93.18;52248.34;5049643;28;20393;-70
2022/06/06 08:06:48;;;;;;;;;;;;;;;-144.99;91.94;52236.13;5050649;28;19940;-70
2022/06/06 08:09:21;;;;;;;;;;;;;;;-144.99;92.34;52215.75;5050572;28;19956;-71
2022/06/06 08:11:58;;;;;;;;;;;;;;;-144.99;94.11;52268.72;5050107;28;20703;-70
2022/06/06 08:14:32;;;;;;;;;;;;;;;-144.99;94.54;52252.44;5049908;28;19955;-70
2022/06/06 08:17:02;;;;;;;;;;;;;;;-144.99;94.39;52268.72;5049129;28;19963;-71
2022/06/06 08:19:35;;;;;;;;;;;;;;;-144.99;94.81;52262.63;5049699;28;20434;-70
2022/06/06 08:22:02;;;;;;;;;;;;;;;-144.99;94.57;52240.19;5049600;28;20490;-68
2022/06/06 08:24:30;;;;;;;;;;;;;;;-144.99;94.87;52293.19;5049587;28;20502;-69
2022/06/06 08:27:00;;;;;;;;;;;;;;;-144.99;95.27;52252.44;5049609;28;20374;-68
2022/06/06 08:29:27;;;;;;;;;;;;;;;-144.99;94.61;52250.38;5049762;28;19925;-70
2022/06/06 08:31:54;;;;;;;;;;;;;;;-144.99;95.01;52264.66;5049109;28;20050;-64
2022/06/06 08:34:21;;;;;;;;;;;;;;;-144.99;93.81;52276.88;5049495;28;19932;-64
2022/06/06 08:37:00;;;;;;;;;;;;;;;-144.99;95.00;52256.50;5049316;28;19928;-64
2022/06/06 08:39:31;;;;;;;;;;;;;;;-144.99;93.77;52264.66;5046368;28;19980;-64
2022/06/06 08:42:12;;;;;;;;;;;;;;;-144.99;92.96;52268.72;5048021;28;19931;-63
2022/06/06 08:44:50;;;;;;;;;;;;;;;-144.99;92.26;52280.97;5035559;28;20169;-67
2022/06/06 08:47:19;;;;;;;;;;;;;;;-144.99;91.19;52272.81;5049437;28;19925;-72
2022/06/06 08:52:59;;;;;;;;;;;;;;;-144.99;89.42;52264.66;5044005;28;19989;-72
2022/06/06 08:55:34;;;;;;;;;;;;;;;-144.99;85.83;52219.81;5047226;28;20267;-72
2022/06/06 08:58:17;;;;;;;;;;;;;;;-144.99;84.64;52248.34;5046732;28;20015;-71
2022/06/06 09:00:49;;;;;;;;;;;;;;;-144.99;82.99;52215.75;5046461;28;19925;-71
2022/06/06 09:03:35;;;;;;;;;;;;;;;-144.99;81.01;52193.31;5051427;28;20397;-72
2022/06/06 09:06:23;;;;;;;;;;;;;;;-144.99;79.39;52227.97;5051308;28;20426;-71
2022/06/06 09:09:08;;;;;;;;;;;;;;;-144.99;77.87;52201.47;5045199;28;19969;-73
2022/06/06 09:11:49;;;;;;;;;;;;;;;-144.99;75.12;52240.19;5051170;28;19924;-71
2022/06/06 09:14:33;;;;;;;;;;;;;;;-144.99;74.67;52236.13;5044114;28;20087;-71
2022/06/06 09:17:19;;;;;;;;;;;;;;;-144.99;74.60;52264.66;5041312;28;19929;-71
2022/06/06 09:19:58;;;;;;;;;;;;;;;-144.99;75.34;52238.16;5046718;28;19925;-72
2022/06/06 09:22:38;;;;;;;;;;;;;;;-144.99;76.15;52252.44;5052146;28;19970;-72
2022/06/06 09:25:22;;;;;;;;;;;;;;;-144.99;76.52;52232.03;5049528;28;20341;-72
2022/06/06 09:28:04;;;;;;;;;;;;;;;-144.99;77.52;52219.81;5047467;28;20012;-71
2022/06/06 09:31:03;;;;;;;;;;;;;;;-144.99;79.17;52234.09;5054286;28;20398;-71
2022/06/06 09:33:48;;;;;;;;;;;;;;;-144.99;79.57;52262.63;4993202;28;19969;-72
2022/06/06 09:36:23;;;;;;;;;;;;;;;-144.99;79.41;52232.03;4958091;28;20153;-72
2022/06/06 09:39:07;;;;;;;;;;;;;;;-144.99;78.32;52225.94;5029008;28;20326;-72
2022/06/06 09:41:38;;;;;;;;;;;;;;;-144.99;78.04;52244.28;5045201;28;20064;-73
2022/06/06 09:44:12;;;;;;;;;;;;;;;-144.99;77.09;52211.66;5044869;28;20488;-72
2022/06/06 09:46:55;;;;;;;;;;;;;;;-144.99;75.37;52221.84;5050320;28;19928;-72
2022/06/06 09:49:37;;;;;;;;;;;;;;;-144.99;74.21;52203.50;5050635;28;19994;-72
2022/06/06 09:52:22;;;;;;;;;;;;;;;-144.99;71.32;52146.44;5010676;28;20015;-73
2022/06/06 10:01:05;;;;;;;;;;;;;;;-144.99;69.17;52207.59;5052231;28;20397;-73
2022/06/06 10:03:43;;;;;;;;;;;;;;;-144.99;70.82;52227.97;5047067;28;19925;-73
2022/06/06 10:06:34;;;;;;;;;;;;;;;-144.99;71.42;52203.50;5048220;28;19946;-72
2022/06/06 10:09:24;;;;;;;;;;;;;;;-144.99;72.26;52221.84;5030768;28;19932;-72
2022/06/06 10:12:18;;;;;;;;;;;;;;;-144.99;71.85;52219.81;5051991;28;19928;-73
2022/06/06 10:14:53;;;;;;;;;;;;;;;-144.99;71.90;52219.81;5044781;28;19964;-72
2022/06/06 10:17:27;;;;;;;;;;;;;;;-144.99;72.36;52207.59;5050122;28;20012;-71
2022/06/06 10:20:01;;;;;;;;;;;;;;;-144.99;72.56;52240.19;5050651;28;20416;-72
2022/06/06 10:22:38;;;;;;;;;;;;;;;-144.99;71.95;52223.88;5052066;28;19925;-72
2022/06/06 10:25:38;;;;;;;;;;;;;;;-144.99;72.70;52199.44;5049490;28;19987;-72
2022/06/06 10:28:17;;;;;;;;;;;;;;;-144.99;71.14;52179.06;5040013;28;19924;-73
2022/06/06 10:30:51;;;;;;;;;;;;;;;-144.99;69.11;52193.31;5051731;28;19980;-72
2022/06/06 10:33:36;;;;;;;;;;;;;;;-144.99;67.65;52213.69;5048907;28;20003;-72
2022/06/06 10:36:11;;;;;;;;;;;;;;;-144.99;66.27;52232.03;5049836;28;19924;-72
2022/06/06 10:38:56;;;;;;;;;;;;;;;-144.99;66.32;52162.75;5049960;28;19931;-71
2022/06/06 10:41:34;;;;;;;;;;;;;;;-144.99;66.77;52121.97;5049447;28;19974;-72
2022/06/06 10:44:24;;;;;;;;;;;;;;;-144.99;65.75;52162.75;5049651;28;19979;-72
2022/06/06 10:46:57;;;;;;;;;;;;;;;-144.99;64.54;52179.06;5049049;28;19935;-72
2022/06/06 10:49:32;;;;;;;;;;;;;;;-144.99;63.28;52199.44;5049173;28;19951;-72
2022/06/06 10:52:11;;;;;;;;;;;;;;;-144.99;61.77;52154.59;5048677;28;20037;-73
2022/06/06 10:55:00;;;;;;;;;;;;;;;-144.99;59.61;52130.13;5045586;28;20311;-72
2022/06/06 10:57:51;;;;;;;;;;;;;;;-144.99;56.94;52087.34;5040068;28;19929;-72
2022/06/06 11:00:34;;;;;;;;;;;;;;;-144.99;55.59;52119.94;5046018;28;20333;-71
2022/06/06 11:03:22;;;;;;;;;;;;;;;-144.99;55.82;52191.28;5057393;28;20318;-72
2022/06/06 11:06:04;;;;;;;;;;;;;;;-144.99;56.88;52187.19;5049741;28;19956;-72
2022/06/06 11:08:40;;;;;;;;;;;;;;;-144.99;57.94;52199.44;5050023;28;19975;-71
2022/06/06 11:11:40;;;;;;;;;;;;;;;-144.99;59.18;52183.13;5054657;28;20031;-73
2022/06/06 11:14:09;;;;;;;;;;;;;;;-144.99;61.43;52185.16;4971632;28;20054;-72
2022/06/06 11:16:51;;;;;;;;;;;;;;;-144.99;62.43;52219.81;4966663;28;19930;-72
2022/06/06 11:19:41;;;;;;;;;;;;;;;-144.99;62.37;52211.66;4996053;28;19929;-72
2022/06/06 11:22:23;;;;;;;;;;;;;;;-144.99;61.05;52146.44;5049646;28;19960;-73
2022/06/06 11:24:54;;;;;;;;;;;;;;;-144.99;59.92;52130.13;5046223;28;19924;-72
2022/06/06 11:27:36;;;;;;;;;;;;;;;-144.99;58.23;52158.66;5048954;28;19972;-72
2022/06/06 11:30:07;;;;;;;;;;;;;;;-144.99;57.43;52138.28;5051357;28;19928;-73
2022/06/06 11:32:52;;;;;;;;;;;;;;;-144.99;56.76;52130.13;5049471;28;19925;-73
2022/06/06 11:35:27;;;;;;;;;;;;;;;-144.99;56.10;52111.78;5047901;28;20016;-73
2022/06/06 11:38:08;;;;;;;;;;;;;;;-144.99;55.08;52091.41;5048663;28;19986;-72
2022/06/06 11:40:49;;;;;;;;;;;;;;;-144.99;54.36;52142.38;5053413;28;20054;-72
2022/06/06 11:43:39;;;;;;;;;;;;;;;-144.99;53.35;52046.56;5051639;28;19952;-73
2022/06/06 11:46:20;;;;;;;;;;;;;;;-144.99;53.78;52134.22;5049437;28;19932;-73
2022/06/06 11:49:00;;;;;;;;;;;;;;;-144.99;54.03;52113.84;5046467;28;19972;-73
2022/06/06 11:51:42;;;;;;;;;;;;;;;-144.99;54.39;52130.13;5050572;28;20019;-72
2022/06/06 11:54:38;;;;;;;;;;;;;;;-144.99;52.55;52134.22;5006524;28;19924;-73
2022/06/06 11:57:25;;;;;;;;;;;;;;;-144.99;49.66;52177.00;5048296;28;20016;-73
2022/06/06 12:00:05;;;;;;;;;;;;;;;-144.99;50.22;52185.16;5048839;28;19924;-73
2022/06/06 12:02:53;;;;;;;;;;;;;;;-144.99;50.41;52154.59;5040564;28;19931;-73
2022/06/06 12:05:27;;;;;;;;;;;;;;;-144.99;49.65;52097.53;5049546;28;20015;-73
2022/06/06 12:08:12;;;;;;;;;;;;;;;-144.99;47.68;52174.97;5048765;28;20427;-72
2022/06/06 12:10:46;;;;;;;;;;;;;;;-144.99;48.09;52174.97;5047480;28;19983;-72
2022/06/06 12:13:41;;;;;;;;;;;;;;;-144.99;47.33;52146.44;5046362;28;19925;-72
2022/06/06 12:16:28;;;;;;;;;;;;;;;-144.99;48.06;52189.25;4992752;28;19943;-72
2022/06/06 12:19:10;;;;;;;;;;;;;;;-144.99;46.72;52136.25;5043202;28;19928;-72
2022/06/06 12:21:45;;;;;;;;;;;;;;;-144.99;45.48;52101.59;4340821;28;10020857;-73
2022/06/06 12:24:26;;;;;;;;;;;;;;;-144.99;43.42;52101.59;5044172;28;20025;-72
2022/06/06 12:27:10;;;;;;;;;;;;;;;-144.99;43.03;52062.88;5043711;28;20349;-72
2022/06/06 12:29:51;;;;;;;;;;;;;;;-144.99;43.81;52146.44;5040602;28;20276;-74
2022/06/06 12:32:36;;;;;;;;;;;;;;;-144.99;43.42;52107.72;5044281;28;20443;-73
2022/06/06 12:35:05;;;;;;;;;;;;;;;-144.99;43.52;52172.94;5049441;28;19951;-74
2022/06/06 12:37:38;;;;;;;;;;;;;;;-144.99;42.89;52097.53;5047134;28;20010;-73
2022/06/06 12:40:08;;;;;;;;;;;;;;;-144.99;43.28;52168.84;5055209;28;20015;-73
2022/06/06 12:42:43;;;;;;;;;;;;;;;-144.99;42.90;52199.44;5045030;28;19932;-74
2022/06/06 12:45:29;;;;;;;;;;;;;;;-144.99;43.79;52158.66;5048630;28;19947;-73
2022/06/06 12:48:02;;;;;;;;;;;;;;;-144.99;44.66;52199.44;5049143;28;19971;-73
2022/06/06 12:50:50;;;;;;;;;;;;;;;-144.99;43.97;52183.13;5053608;28;19925;-74
2022/06/06 12:53:32;;;;;;;;;;;;;;;-144.99;44.64;52170.91;5043273;28;19935;-73
2022/06/06 12:56:24;;;;;;;;;;;;;;;-144.99;44.13;52162.75;5049503;28;19925;-73
2022/06/06 12:58:59;;;;;;;;;;;;;;;-144.99;43.79;52113.84;5049152;28;19932;-73
2022/06/06 13:01:39;;;;;;;;;;;;;;;-144.99;43.84;52103.66;5051181;28;19935;-73
2022/06/06 13:04:34;;;;;;;;;;;;;;;-144.99;42.22;52158.66;5049569;28;20018;-73
2022/06/06 13:09:59;;;;;;;;;;;;;;;-144.99;40.07;52121.97;5041961;28;19952;-65
2022/06/06 13:12:39;;;;;;;;;;;;;;;-144.99;40.51;52174.97;5030032;28;20016;-66
2022/06/06 13:15:15;;;;;;;;;;;;;;;-144.99;40.30;52166.81;5031446;28;19964;-66
2022/06/06 13:17:51;;;;;;;;;;;;;;;-144.99;40.32;52121.97;5022095;28;20044;-65
2022/06/06 13:20:21;;;;;;;;;;;;;;;-144.99;39.83;52134.22;5031341;28;19933;-66
2022/06/06 13:23:06;;;;;;;;;;;;;;;-144.99;39.66;52089.38;5021501;28;20016;-65
2022/06/06 13:25:38;;;;;;;;;;;;;;;-144.99;39.54;52113.84;5025369;28;20198;-65